createdAt,value
2018-12-10T00:01:11.648Z,77.10
2018-12-10T00:03:39.214Z,77.00
2018-12-10T00:06:06.811Z,77.30
2018-12-10T00:08:34.444Z,77.30
2018-12-10T00:11:02.026Z,77.50
2018-12-10T00:13:29.629Z,76.00
2018-12-10T00:15:57.488Z,76.50
2018-12-10T00:18:25.120Z,76.80
2018-12-10T00:20:52.722Z,77.30
2018-12-10T00:23:20.398Z,76.90
2018-12-10T00:25:48.410Z,76.70
2018-12-10T00:28:16.231Z,77.40
2018-12-10T00:30:43.859Z,77.40
2018-12-10T00:33:11.440Z,77.20
2018-12-10T00:35:39.031Z,76.80
2018-12-10T00:38:06.742Z,76.40
2018-12-10T00:40:34.484Z,76.80
2018-12-10T00:43:02.112Z,77.10
2018-12-10T00:45:29.763Z,77.90
2018-12-10T00:47:58.282Z,75.70
2018-12-10T00:50:25.915Z,76.40
2018-12-10T00:52:53.586Z,76.30
2018-12-10T00:55:21.504Z,76.80
2018-12-10T00:57:49.465Z,77.00
2018-12-10T01:00:17.354Z,77.80
2018-12-10T01:02:45.141Z,76.90
2018-12-10T01:05:12.917Z,76.30
2018-12-10T01:07:40.496Z,76.60
2018-12-10T01:10:08.306Z,76.80
2018-12-10T01:12:35.881Z,76.70
2018-12-10T01:15:04.501Z,76.00
2018-12-10T01:17:32.088Z,76.30
2018-12-10T01:19:59.678Z,76.50
2018-12-10T01:22:27.314Z,76.90
2018-12-10T01:24:54.956Z,76.40
2018-12-10T01:29:50.242Z,76.50
2018-12-10T01:32:18.000Z,77.20
2018-12-10T01:34:45.583Z,76.90
2018-12-10T01:37:13.205Z,76.80
2018-12-10T01:39:41.140Z,77.10
2018-12-10T01:42:08.803Z,77.10
2018-12-10T01:44:36.408Z,77.30
2018-12-10T01:49:31.699Z,77.50
2018-12-10T01:54:27.018Z,76.70
2018-12-10T01:56:54.915Z,76.50
2018-12-10T01:59:22.570Z,76.90
2018-12-10T02:01:50.144Z,76.20
2018-12-10T02:04:18.499Z,76.60
2018-12-10T02:06:46.085Z,76.90
2018-12-10T02:09:13.676Z,76.80
2018-12-10T02:11:41.265Z,76.70
2018-12-10T02:14:08.882Z,76.80
2018-12-10T02:16:36.531Z,77.00
2018-12-10T02:19:04.170Z,77.10
2018-12-10T02:23:59.430Z,77.40
2018-12-10T02:26:27.008Z,76.90
2018-12-10T02:29:00.206Z,77.20
2018-12-10T02:38:50.822Z,76.40
2018-12-10T02:41:18.692Z,76.70
2018-12-10T02:46:13.932Z,76.10
2018-12-10T02:51:09.175Z,76.50
2018-12-10T02:53:36.775Z,77.40
2018-12-10T02:58:31.995Z,77.10
2018-12-10T03:05:54.816Z,77.50
2018-12-10T03:08:22.429Z,76.60
2018-12-10T03:10:50.013Z,75.40
2018-12-10T03:18:12.903Z,76.30
2018-12-10T03:20:40.507Z,76.80
2018-12-10T03:25:36.653Z,75.90
2018-12-10T03:28:04.309Z,76.60
2018-12-10T03:30:31.920Z,76.90
2018-12-10T03:35:27.268Z,76.70
2018-12-10T03:37:54.897Z,76.90
2018-12-10T03:40:22.514Z,76.30
2018-12-10T03:42:50.320Z,76.30
2018-12-10T03:45:18.292Z,76.20
2018-12-10T03:50:13.533Z,76.30
2018-12-10T03:52:41.094Z,76.70
2018-12-10T03:55:08.692Z,77.40
2018-12-10T03:57:36.524Z,77.30
2018-12-10T04:00:04.360Z,77.20
2018-12-10T04:02:31.978Z,77.80
2018-12-10T04:04:59.760Z,77.20
2018-12-10T04:07:27.345Z,77.20
2018-12-10T04:09:54.951Z,77.40
2018-12-10T04:12:22.638Z,77.30
2018-12-10T04:14:50.256Z,77.70
2018-12-10T04:17:18.165Z,77.70
2018-12-10T04:19:45.802Z,76.70
2018-12-10T04:22:14.108Z,76.40
2018-12-10T04:24:41.726Z,76.40
2018-12-10T04:27:09.306Z,76.60
2018-12-10T04:29:36.932Z,77.10
2018-12-10T04:32:04.512Z,77.40
2018-12-10T04:34:32.103Z,76.90
2018-12-10T04:37:01.386Z,77.00
2018-12-10T04:39:29.027Z,77.00
2018-12-10T04:41:56.618Z,76.90
2018-12-10T04:44:24.432Z,77.60
2018-12-10T04:46:52.068Z,77.00
2018-12-10T04:49:19.707Z,76.80
2018-12-10T04:51:47.393Z,77.20
2018-12-10T04:54:15.074Z,77.60
2018-12-10T04:56:42.791Z,78.20
2018-12-10T04:59:10.393Z,77.20
2018-12-10T05:01:37.980Z,77.30
2018-12-10T05:04:05.586Z,77.50
2018-12-10T05:06:33.201Z,76.80
2018-12-10T05:09:01.728Z,78.00
2018-12-10T05:11:29.347Z,77.30
2018-12-10T05:13:56.918Z,77.10
2018-12-10T05:16:24.490Z,77.20
2018-12-10T05:18:52.074Z,77.10
2018-12-10T05:21:19.667Z,77.00
2018-12-10T05:23:47.405Z,77.10
2018-12-10T05:26:15.009Z,76.90
2018-12-10T05:28:42.564Z,77.20
2018-12-10T05:31:10.140Z,77.80
2018-12-10T05:33:37.716Z,78.10
2018-12-10T05:36:05.320Z,77.90
2018-12-10T05:38:32.894Z,77.70
2018-12-10T05:41:00.588Z,77.40
2018-12-10T05:43:28.184Z,77.20
2018-12-10T05:45:56.059Z,77.60
2018-12-10T05:48:23.647Z,77.60
2018-12-10T05:50:51.222Z,77.10
2018-12-10T05:53:19.053Z,77.00
2018-12-10T05:55:46.612Z,77.00
2018-12-10T05:58:14.219Z,77.70
2018-12-10T06:00:41.804Z,77.80
2018-12-10T06:03:09.390Z,78.00
2018-12-10T06:05:36.975Z,77.90
2018-12-10T06:08:04.584Z,77.70
2018-12-10T06:10:32.154Z,77.70
2018-12-10T06:12:59.808Z,78.20
2018-12-10T06:15:27.509Z,78.30
2018-12-10T06:17:55.106Z,78.50
2018-12-10T06:20:22.687Z,78.50
2018-12-10T06:22:50.289Z,78.50
2018-12-10T06:25:18.883Z,79.00
2018-12-10T06:27:46.521Z,79.00
2018-12-10T06:30:14.089Z,78.80
2018-12-10T06:32:41.675Z,78.30
2018-12-10T06:35:09.287Z,79.90
2018-12-10T06:37:37.758Z,79.30
2018-12-10T06:40:05.763Z,80.00
2018-12-10T06:42:33.348Z,80.10
2018-12-10T06:45:01.094Z,79.30
2018-12-10T06:49:56.431Z,79.40
2018-12-10T06:54:51.686Z,79.70
2018-12-10T06:57:19.444Z,80.00
2018-12-10T06:59:47.029Z,80.00
2018-12-10T07:02:14.619Z,80.10
2018-12-10T07:04:42.195Z,79.70
2018-12-10T07:07:09.785Z,80.20
2018-12-10T07:09:37.507Z,79.50
2018-12-10T07:12:05.220Z,79.20
2018-12-10T07:14:32.845Z,79.20
2018-12-10T07:17:00.683Z,79.50
2018-12-10T07:19:28.326Z,78.80
2018-12-10T07:21:56.117Z,79.10
2018-12-10T07:24:23.727Z,78.90
2018-12-10T07:26:51.300Z,79.00
2018-12-10T07:29:19.979Z,79.60
2018-12-10T07:31:47.760Z,79.30
2018-12-10T07:34:15.317Z,79.20
2018-12-10T07:36:42.890Z,79.20
2018-12-10T07:39:10.477Z,79.30
2018-12-10T07:41:38.115Z,78.70
2018-12-10T07:44:05.699Z,78.80
2018-12-10T07:46:33.302Z,79.20
2018-12-10T07:51:29.060Z,79.70
2018-12-10T07:53:56.636Z,80.00
2018-12-10T07:56:28.982Z,80.20
2018-12-10T07:58:53.839Z,80.40
2018-12-10T08:01:21.397Z,81.00
2018-12-10T08:03:49.111Z,80.50
2018-12-10T08:06:16.673Z,80.50
2018-12-10T08:08:44.262Z,80.30
2018-12-10T08:11:11.848Z,80.00
2018-12-10T08:13:39.415Z,80.00
2018-12-10T08:16:06.996Z,80.10
2018-12-10T08:23:30.678Z,80.30
2018-12-10T08:28:26.279Z,80.50
2018-12-10T08:40:44.263Z,80.50
2018-12-10T08:43:11.872Z,80.70
2018-12-10T08:45:39.499Z,80.80
2018-12-10T08:48:07.085Z,80.80
2018-12-10T08:50:34.861Z,81.10
2018-12-10T08:53:02.778Z,81.00
2018-12-10T08:57:57.941Z,81.30
2018-12-10T09:00:25.660Z,81.20
2018-12-10T09:02:53.246Z,81.40
2018-12-10T09:05:20.815Z,81.10
2018-12-10T09:07:48.852Z,80.80
2018-12-10T09:10:16.766Z,81.30
2018-12-10T09:12:47.174Z,81.40
2018-12-10T09:15:13.969Z,81.70
2018-12-10T09:17:41.604Z,82.90
2018-12-10T09:20:09.210Z,81.80
2018-12-10T09:22:36.792Z,81.60
2018-12-10T09:25:05.411Z,81.90
2018-12-10T09:27:33.019Z,82.00
2018-12-10T09:30:00.629Z,82.60
2018-12-10T09:32:28.208Z,82.30
2018-12-10T09:34:55.802Z,81.80
2018-12-10T09:37:23.401Z,82.00
2018-12-10T09:39:51.027Z,82.00
2018-12-10T09:42:18.905Z,81.70
2018-12-10T09:44:46.527Z,82.40
2018-12-10T09:47:14.097Z,82.60
2018-12-10T09:49:41.688Z,82.00
2018-12-10T09:54:37.087Z,82.10
2018-12-10T09:57:04.987Z,82.80
2018-12-10T09:59:32.568Z,82.60
2018-12-10T10:04:27.785Z,82.30
2018-12-10T10:06:55.373Z,82.40
2018-12-10T10:09:22.984Z,82.10
2018-12-10T10:11:50.818Z,81.70
2018-12-10T10:14:18.438Z,81.90
2018-12-10T10:16:46.030Z,83.20
2018-12-10T10:19:13.635Z,82.60
2018-12-10T10:21:41.211Z,82.80
2018-12-10T10:24:08.776Z,80.90
2018-12-10T10:26:36.379Z,80.70
2018-12-10T10:29:04.208Z,80.90
2018-12-10T10:31:31.795Z,81.10
2018-12-10T10:33:59.393Z,80.70
2018-12-10T10:36:26.979Z,80.60
2018-12-10T10:38:54.560Z,81.10
2018-12-10T10:41:22.130Z,80.20
2018-12-10T10:43:49.725Z,80.70
2018-12-10T10:46:18.248Z,80.30
2018-12-10T10:48:45.879Z,80.30
2018-12-10T10:51:13.463Z,81.00
2018-12-10T10:53:41.149Z,81.00
2018-12-10T10:56:08.919Z,79.20
2018-12-10T10:58:36.548Z,79.50
2018-12-10T11:01:09.942Z,80.10
2018-12-10T11:03:39.047Z,80.20
2018-12-10T11:06:07.068Z,80.20
2018-12-10T11:08:34.777Z,80.80
2018-12-10T11:11:02.549Z,80.20
2018-12-10T11:13:30.223Z,79.90
2018-12-10T11:15:57.817Z,79.70
2018-12-10T11:18:25.427Z,80.20
2018-12-10T11:20:53.053Z,79.90
2018-12-10T11:23:20.614Z,80.80
2018-12-10T11:25:48.468Z,80.40
2018-12-10T11:28:16.054Z,79.60
2018-12-10T11:30:43.767Z,79.50
2018-12-10T11:33:11.390Z,79.80
2018-12-10T11:35:38.976Z,80.50
2018-12-10T11:38:06.568Z,80.50
2018-12-10T11:40:34.189Z,80.30
2018-12-10T11:43:01.770Z,79.10
2018-12-10T11:45:29.362Z,79.60
2018-12-10T11:47:56.983Z,80.20
2018-12-10T11:50:24.582Z,79.90
2018-12-10T11:52:52.204Z,79.90
2018-12-10T11:55:20.171Z,80.00
2018-12-10T11:57:48.124Z,80.00
2018-12-10T12:00:15.873Z,80.10
2018-12-10T12:02:43.522Z,80.40
2018-12-10T12:05:11.144Z,80.00
2018-12-10T12:07:38.720Z,79.60
2018-12-10T12:10:06.837Z,79.40
2018-12-10T12:12:34.418Z,79.50
2018-12-10T12:15:02.053Z,79.70
2018-12-10T12:17:29.608Z,80.40
2018-12-10T12:19:57.190Z,79.70
2018-12-10T12:22:24.796Z,80.20
2018-12-10T12:24:52.597Z,79.80
2018-12-10T12:27:20.188Z,79.60
2018-12-10T12:29:48.530Z,79.40
2018-12-10T12:32:16.111Z,79.30
2018-12-10T12:34:44.566Z,79.90
2018-12-10T12:37:12.243Z,79.20
2018-12-10T12:39:39.917Z,79.20
2018-12-10T12:42:07.579Z,79.10
2018-12-10T12:44:35.242Z,78.90
2018-12-10T12:49:30.570Z,79.40
2018-12-10T12:54:25.747Z,79.60
2018-12-10T12:59:21.199Z,80.00
2018-12-10T13:01:49.509Z,80.60
2018-12-10T13:06:45.050Z,79.90
2018-12-10T13:09:12.655Z,79.70
2018-12-10T13:11:40.269Z,79.70
2018-12-10T13:14:07.852Z,79.80
2018-12-10T13:16:35.433Z,79.70
2018-12-10T13:19:03.016Z,79.10
2018-12-10T13:21:30.759Z,79.20
2018-12-10T13:23:58.349Z,79.80
2018-12-10T13:26:25.966Z,79.80
2018-12-10T13:28:53.544Z,80.00
2018-12-10T13:31:21.126Z,80.00
2018-12-10T13:33:48.913Z,80.10
2018-12-10T13:36:16.550Z,80.00
2018-12-10T13:38:44.114Z,80.00
2018-12-10T13:41:11.700Z,79.70
2018-12-10T13:43:39.299Z,80.50
2018-12-10T13:48:34.448Z,79.70
2018-12-10T14:00:52.608Z,79.80
2018-12-10T14:03:20.210Z,79.70
2018-12-10T14:05:47.972Z,79.40
2018-12-10T14:08:15.614Z,79.40
2018-12-10T14:13:10.808Z,79.60
2018-12-10T14:27:56.500Z,79.60
2018-12-10T14:30:24.465Z,80.10
2018-12-10T14:32:52.027Z,80.10
2018-12-10T14:37:47.372Z,80.00
2018-12-10T14:40:15.017Z,79.90
2018-12-10T14:42:50.556Z,79.80
2018-12-10T14:45:18.589Z,80.00
2018-12-10T14:47:49.721Z,79.90
2018-12-10T14:50:17.368Z,79.90
2018-12-10T14:52:44.992Z,80.00
2018-12-10T14:55:12.637Z,80.00
2018-12-10T14:57:40.222Z,80.00
2018-12-10T15:00:09.663Z,78.40
2018-12-10T15:02:37.259Z,80.20
2018-12-10T15:05:06.306Z,80.10
2018-12-10T15:07:33.911Z,80.20
2018-12-10T15:10:01.546Z,80.20
2018-12-10T15:12:29.161Z,80.40
2018-12-10T15:14:57.690Z,80.50
2018-12-10T15:17:25.314Z,80.60
2018-12-10T15:19:52.881Z,80.60
2018-12-10T15:24:48.652Z,80.50
2018-12-10T15:27:16.276Z,80.60
2018-12-10T15:29:43.835Z,80.70
2018-12-10T15:32:11.428Z,80.80
2018-12-10T15:37:06.913Z,80.80
2018-12-10T15:44:29.649Z,80.80
2018-12-10T15:46:57.298Z,80.80
2018-12-10T15:51:52.499Z,80.90
2018-12-10T15:56:47.944Z,80.90
2018-12-10T16:01:43.287Z,81.00
2018-12-10T16:09:06.966Z,81.20
2018-12-10T16:11:34.587Z,81.80
2018-12-10T16:14:02.160Z,81.30
2018-12-10T16:16:29.799Z,81.50
2018-12-10T16:18:57.372Z,81.40
2018-12-10T16:21:24.980Z,81.50
2018-12-10T16:23:52.552Z,81.40
2018-12-10T16:26:20.153Z,82.00
2018-12-10T16:28:48.770Z,81.50
2018-12-10T16:31:16.353Z,81.50
2018-12-10T16:33:44.649Z,81.40
2018-12-10T16:38:40.618Z,81.10
2018-12-10T16:43:35.807Z,81.50
2018-12-10T16:46:03.520Z,82.80
2018-12-10T16:48:31.091Z,82.10
2018-12-10T16:50:58.701Z,82.10
2018-12-10T16:53:26.667Z,81.80
2018-12-10T16:55:54.279Z,81.90
2018-12-10T16:58:21.911Z,81.90
2018-12-10T17:03:17.814Z,82.00
2018-12-10T17:08:13.008Z,81.80
2018-12-10T17:10:40.607Z,81.90
2018-12-10T17:13:08.267Z,81.90
2018-12-10T17:15:35.875Z,82.00
2018-12-10T17:18:03.477Z,81.90
2018-12-10T17:20:31.128Z,81.90
2018-12-10T17:22:58.787Z,81.90
2018-12-10T17:25:26.371Z,81.90
2018-12-10T17:27:54.334Z,82.00
2018-12-10T17:30:22.061Z,82.00
2018-12-10T17:32:49.641Z,82.00
2018-12-10T17:35:17.695Z,82.00
2018-12-10T17:37:45.568Z,82.60
2018-12-10T17:40:13.496Z,81.90
2018-12-10T17:42:41.308Z,82.00
2018-12-10T17:45:09.357Z,81.90
2018-12-10T17:47:37.287Z,81.70
2018-12-10T17:55:02.267Z,81.70
2018-12-10T17:57:29.858Z,81.70
2018-12-10T17:59:57.423Z,81.80
2018-12-10T18:02:25.052Z,82.40
2018-12-10T18:04:52.945Z,81.70
2018-12-10T18:09:50.581Z,81.80
2018-12-10T18:12:18.764Z,81.70
2018-12-10T18:14:46.485Z,81.70
2018-12-10T18:17:14.144Z,82.00
2018-12-10T18:22:09.497Z,81.30
2018-12-10T18:27:04.648Z,81.80
2018-12-10T18:29:32.273Z,82.00
2018-12-10T18:31:59.861Z,81.70
2018-12-10T18:34:27.471Z,82.40
2018-12-10T18:36:55.090Z,82.30
2018-12-10T18:39:22.715Z,82.20
2018-12-10T18:44:19.424Z,81.90
2018-12-10T18:46:47.058Z,81.60
2018-12-10T18:51:42.302Z,81.50
2018-12-10T18:54:09.939Z,81.50
2018-12-10T18:56:37.544Z,81.60
2018-12-10T18:59:05.138Z,81.90
2018-12-10T19:01:32.948Z,82.60
2018-12-10T19:04:00.532Z,82.30
2018-12-10T19:06:28.268Z,82.20
2018-12-10T19:08:56.398Z,82.20
2018-12-10T19:11:24.207Z,82.30
2018-12-10T19:13:51.790Z,82.40
2018-12-10T19:16:20.328Z,82.30
2018-12-10T19:18:48.386Z,82.30
2018-12-10T19:21:15.986Z,82.50
2018-12-10T19:23:43.611Z,82.40
2018-12-10T19:28:38.811Z,82.40
2018-12-10T19:36:02.058Z,81.90
2018-12-10T19:38:29.635Z,82.50
2018-12-10T19:40:57.288Z,82.40
2018-12-10T19:45:53.494Z,83.80
2018-12-10T19:53:17.357Z,82.60
2018-12-10T19:55:45.136Z,82.60
2018-12-10T20:00:40.312Z,82.60
2018-12-10T20:03:08.016Z,82.70
2018-12-10T20:10:36.690Z,82.70
2018-12-10T20:13:04.280Z,82.60
2018-12-10T20:17:59.470Z,82.80
2018-12-10T20:20:27.040Z,83.10
2018-12-10T20:22:54.657Z,83.20
2018-12-10T20:25:22.313Z,83.00
2018-12-10T20:27:49.994Z,82.80
2018-12-10T20:30:17.889Z,82.90
2018-12-10T20:32:45.494Z,83.10
2018-12-10T20:35:13.303Z,83.60
2018-12-10T20:37:40.948Z,83.20
2018-12-10T20:40:08.854Z,83.30
2018-12-10T20:42:36.493Z,83.90
2018-12-10T20:45:05.567Z,83.40
2018-12-10T20:47:33.204Z,83.60
2018-12-10T20:50:00.825Z,85.40
2018-12-10T20:52:28.419Z,82.50
2018-12-10T20:54:56.020Z,83.40
2018-12-10T20:57:23.613Z,84.00
2018-12-10T20:59:51.251Z,83.50
2018-12-10T21:02:19.130Z,83.70
2018-12-10T21:04:46.717Z,83.80
2018-12-10T21:07:14.356Z,84.40
2018-12-10T21:09:42.058Z,84.50
2018-12-10T21:12:10.099Z,84.20
2018-12-10T21:17:05.397Z,84.50
2018-12-10T21:19:33.101Z,84.50
2018-12-10T21:22:00.962Z,84.40
2018-12-10T21:24:30.481Z,84.70
2018-12-10T21:26:58.057Z,84.90
2018-12-10T21:29:25.650Z,84.90
2018-12-10T21:31:53.246Z,85.60
2018-12-10T21:34:20.818Z,85.10
2018-12-10T21:36:49.595Z,85.20
2018-12-10T21:39:17.267Z,85.20
2018-12-10T21:41:44.981Z,85.60
2018-12-10T21:44:12.547Z,85.60
2018-12-10T21:46:40.149Z,85.70
2018-12-10T21:49:08.963Z,85.80
2018-12-10T21:56:31.871Z,86.00
2018-12-10T21:58:59.447Z,86.10
2018-12-10T22:01:27.039Z,86.30
2018-12-10T22:03:54.674Z,86.50
2018-12-10T22:06:22.322Z,86.60
2018-12-10T22:08:49.896Z,86.70
2018-12-10T22:11:17.977Z,86.80
2018-12-10T22:13:45.565Z,86.90
2018-12-10T22:16:13.128Z,87.60
2018-12-10T22:18:40.713Z,87.60
2018-12-10T22:21:08.395Z,87.20
2018-12-10T22:23:36.157Z,87.80
2018-12-10T22:26:03.743Z,87.10
2018-12-10T22:28:31.374Z,87.20
2018-12-10T22:33:26.844Z,87.40
2018-12-10T22:35:54.507Z,87.50
2018-12-10T22:38:22.243Z,87.50
2018-12-10T22:40:49.833Z,87.50
2018-12-10T22:43:17.538Z,87.60
2018-12-10T22:45:45.207Z,88.20
2018-12-10T22:48:12.796Z,87.80
2018-12-10T22:50:40.389Z,87.80
2018-12-10T22:53:08.001Z,87.80
2018-12-10T22:55:35.595Z,87.90
2018-12-10T22:58:03.190Z,87.90
2018-12-10T23:03:04.200Z,88.00
2018-12-10T23:05:31.756Z,88.00
2018-12-10T23:07:59.343Z,88.70
2018-12-10T23:10:26.969Z,88.20
2018-12-10T23:12:54.820Z,88.10
2018-12-10T23:15:22.473Z,88.00
2018-12-10T23:17:50.075Z,88.70
2018-12-10T23:22:45.560Z,88.20
2018-12-10T23:25:13.204Z,88.20
2018-12-10T23:27:40.809Z,88.10
2018-12-10T23:30:08.621Z,88.20
2018-12-10T23:32:36.209Z,88.20
2018-12-10T23:35:04.318Z,88.30
2018-12-10T23:37:31.937Z,88.40
2018-12-10T23:39:59.528Z,88.30
2018-12-10T23:42:27.141Z,88.50
2018-12-10T23:44:55.687Z,88.40
2018-12-10T23:47:23.274Z,88.40
2018-12-10T23:49:50.862Z,89.10
2018-12-10T23:52:18.577Z,88.60
2018-12-10T23:54:46.181Z,88.60
2018-12-10T23:57:13.799Z,88.60
